createdAt,value
2023-05-22T00:00:09.048Z,18.50
2023-05-22T00:02:11.895Z,18.50
2023-05-22T00:04:21.180Z,18.50
2023-05-22T00:06:24.532Z,18.50
2023-05-22T00:08:29.611Z,18.40
2023-05-22T00:10:32.772Z,18.50
2023-05-22T00:12:35.776Z,18.50
2023-05-22T00:14:38.678Z,18.40
2023-05-22T00:16:41.652Z,18.40
2023-05-22T00:18:44.749Z,18.50
2023-05-22T00:20:48.297Z,18.50
2023-05-22T00:22:51.178Z,18.50
2023-05-22T00:24:55.293Z,18.50
2023-05-22T00:26:58.111Z,18.50
2023-05-22T00:29:00.949Z,18.60
2023-05-22T00:31:03.900Z,18.60
2023-05-22T00:33:06.768Z,18.60
2023-05-22T00:35:10.984Z,18.50
2023-05-22T00:37:13.773Z,18.60
2023-05-22T00:39:16.677Z,18.50
2023-05-22T00:41:22.281Z,18.50
2023-05-22T00:43:25.092Z,18.50
2023-05-22T00:45:27.910Z,18.50
2023-05-22T00:47:32.237Z,18.50
2023-05-22T00:49:35.114Z,18.40
2023-05-22T00:51:37.955Z,18.40
2023-05-22T00:53:40.848Z,18.40
2023-05-22T00:55:43.774Z,18.40
2023-05-22T00:57:47.922Z,18.40
2023-05-22T00:59:50.739Z,18.40
2023-05-22T01:01:53.575Z,18.40
2023-05-22T01:03:56.490Z,18.50
2023-05-22T01:05:59.417Z,18.50
2023-05-22T01:08:02.265Z,18.50
2023-05-22T01:10:07.165Z,18.50
2023-05-22T01:12:14.387Z,18.50
2023-05-22T01:14:22.054Z,18.50
2023-05-22T01:16:29.847Z,18.50
2023-05-22T01:18:36.717Z,18.50
2023-05-22T01:20:42.353Z,18.40
2023-05-22T01:23:16.155Z,18.50
2023-05-22T01:25:27.316Z,18.50
2023-05-22T01:27:57.080Z,18.50
2023-05-22T01:30:11.136Z,18.50
2023-05-22T01:32:17.356Z,18.50
2023-05-22T01:34:20.142Z,18.50
2023-05-22T01:36:23.448Z,18.50
2023-05-22T01:38:26.560Z,18.40
2023-05-22T01:40:29.728Z,18.40
2023-05-22T01:42:32.539Z,18.40
2023-05-22T01:44:35.321Z,18.30
2023-05-22T01:46:38.141Z,18.30
2023-05-22T01:48:42.293Z,18.30
2023-05-22T01:50:45.654Z,18.20
2023-05-22T01:52:53.303Z,18.20
2023-05-22T01:54:58.837Z,18.10
2023-05-22T01:57:04.245Z,18.00
2023-05-22T01:59:10.699Z,18.00
2023-05-22T02:01:13.746Z,18.00
2023-05-22T02:03:18.420Z,18.00
2023-05-22T02:05:22.604Z,17.90
2023-05-22T02:07:25.964Z,17.90
2023-05-22T02:09:29.585Z,17.90
2023-05-22T02:11:32.706Z,17.80
2023-05-22T02:13:35.753Z,17.80
2023-05-22T02:15:38.732Z,17.80
2023-05-22T02:17:41.696Z,17.80
2023-05-22T02:19:44.579Z,17.80
2023-05-22T02:21:48.723Z,17.70
2023-05-22T02:23:51.517Z,17.70
2023-05-22T02:25:55.465Z,17.70
2023-05-22T02:27:58.298Z,17.70
2023-05-22T02:30:01.114Z,17.70
2023-05-22T02:32:04.132Z,17.70
2023-05-22T02:34:07.009Z,17.60
2023-05-22T02:36:12.935Z,17.60
2023-05-22T02:38:17.166Z,17.60
2023-05-22T02:40:19.982Z,17.50
2023-05-22T02:42:22.934Z,17.50
2023-05-22T02:44:25.796Z,17.40
2023-05-22T02:46:28.659Z,17.40
2023-05-22T02:48:31.493Z,17.40
2023-05-22T02:50:34.397Z,17.30
2023-05-22T02:52:39.310Z,17.30
2023-05-22T02:54:43.637Z,17.30
2023-05-22T02:56:46.456Z,17.30
2023-05-22T02:58:49.262Z,17.30
2023-05-22T03:00:53.054Z,17.20
2023-05-22T03:02:55.968Z,17.10
2023-05-22T03:04:59.625Z,17.10
2023-05-22T03:07:02.752Z,17.00
2023-05-22T03:09:05.693Z,17.00
2023-05-22T03:11:10.022Z,16.90
2023-05-22T03:13:12.851Z,16.80
2023-05-22T03:15:15.733Z,16.70
2023-05-22T03:17:18.574Z,16.70
2023-05-22T03:19:21.422Z,16.70
2023-05-22T03:21:24.256Z,16.70
2023-05-22T03:23:27.179Z,16.70
2023-05-22T03:25:30.017Z,16.70
2023-05-22T03:27:34.140Z,16.70
2023-05-22T03:29:37.159Z,16.70
2023-05-22T03:31:39.934Z,16.70
2023-05-22T03:33:42.787Z,16.70
2023-05-22T03:35:45.816Z,16.70
2023-05-22T03:37:48.641Z,16.70
2023-05-22T03:39:51.478Z,16.80
2023-05-22T03:41:54.265Z,16.80
2023-05-22T03:43:59.007Z,16.80
2023-05-22T03:46:01.877Z,16.80
2023-05-22T03:48:05.067Z,16.80
2023-05-22T03:50:08.492Z,16.80
2023-05-22T03:52:11.355Z,16.80
2023-05-22T03:54:14.157Z,16.80
2023-05-22T03:56:17.322Z,16.80
2023-05-22T03:58:20.144Z,16.90
2023-05-22T04:00:25.239Z,16.90
2023-05-22T04:02:30.263Z,16.90
2023-05-22T04:04:38.461Z,16.90
2023-05-22T04:06:43.259Z,16.90
2023-05-22T04:08:46.360Z,17.00
2023-05-22T04:10:49.255Z,17.00
2023-05-22T04:12:52.079Z,17.00
2023-05-22T04:14:54.899Z,17.00
2023-05-22T04:16:59.059Z,17.10
2023-05-22T04:19:03.358Z,17.10
2023-05-22T04:21:09.617Z,17.10
2023-05-22T04:23:13.218Z,17.10
2023-05-22T04:25:16.265Z,17.20
2023-05-22T04:27:22.066Z,17.20
2023-05-22T04:29:24.915Z,17.20
2023-05-22T04:31:27.780Z,17.20
2023-05-22T04:33:34.262Z,17.30
2023-05-22T04:35:37.112Z,17.30
2023-05-22T04:37:40.915Z,17.20
2023-05-22T04:39:44.268Z,17.30
2023-05-22T04:41:47.077Z,17.30
2023-05-22T04:43:49.928Z,17.30
2023-05-22T04:45:52.759Z,17.30
2023-05-22T04:47:55.815Z,17.40
2023-05-22T04:50:00.094Z,17.40
2023-05-22T04:52:04.806Z,17.40
2023-05-22T04:54:07.703Z,17.40
2023-05-22T04:56:13.075Z,17.40
2023-05-22T04:58:17.464Z,17.50
2023-05-22T05:00:26.299Z,17.60
2023-05-22T05:02:29.239Z,17.50
2023-05-22T05:04:32.057Z,17.60
2023-05-22T05:06:37.777Z,17.70
2023-05-22T05:08:42.251Z,17.70
2023-05-22T05:10:45.142Z,17.70
2023-05-22T05:12:47.960Z,17.70
2023-05-22T05:14:50.760Z,17.70
2023-05-22T05:16:53.745Z,17.80
2023-05-22T05:18:56.703Z,17.90
2023-05-22T05:20:59.990Z,17.90
2023-05-22T05:23:04.158Z,17.90
2023-05-22T05:25:09.599Z,18.00
2023-05-22T05:27:15.206Z,18.10
2023-05-22T05:29:18.018Z,18.00
2023-05-22T05:31:20.881Z,18.00
2023-05-22T05:33:23.705Z,18.10
2023-05-22T05:35:26.568Z,18.20
2023-05-22T05:37:29.414Z,18.20
2023-05-22T05:39:33.603Z,18.30
2023-05-22T05:41:36.401Z,18.50
2023-05-22T05:43:39.222Z,18.40
2023-05-22T05:45:42.124Z,18.50
2023-05-22T05:47:45.268Z,18.70
2023-05-22T05:49:48.123Z,18.80
2023-05-22T05:51:50.931Z,19.00
2023-05-22T05:53:54.032Z,19.10
2023-05-22T05:55:58.180Z,19.20
2023-05-22T05:58:00.992Z,19.00
2023-05-22T06:00:05.571Z,19.10
2023-05-22T06:02:08.451Z,19.00
2023-05-22T06:04:11.499Z,19.00
2023-05-22T06:06:15.320Z,19.20
2023-05-22T06:08:19.824Z,19.20
2023-05-22T06:10:22.630Z,19.20
2023-05-22T06:12:26.934Z,19.20
2023-05-22T06:14:29.768Z,19.20
2023-05-22T06:16:32.670Z,19.10
2023-05-22T06:18:35.497Z,19.30
2023-05-22T06:20:39.401Z,19.40
2023-05-22T06:22:42.465Z,19.50
2023-05-22T06:24:45.273Z,19.50
2023-05-22T06:26:48.078Z,19.60
2023-05-22T06:28:52.424Z,19.50
2023-05-22T06:30:55.265Z,19.90
2023-05-22T06:32:58.242Z,20.00
2023-05-22T06:35:01.458Z,20.00
2023-05-22T06:37:04.349Z,20.10
2023-05-22T06:39:07.206Z,20.50
2023-05-22T06:41:10.016Z,20.60
2023-05-22T06:43:13.067Z,20.70
2023-05-22T06:45:19.712Z,20.80
2023-05-22T06:47:22.590Z,20.60
2023-05-22T06:49:26.222Z,20.70
2023-05-22T06:51:29.453Z,20.70
2023-05-22T06:53:32.246Z,20.70
2023-05-22T06:55:35.422Z,20.50
2023-05-22T06:57:38.394Z,20.70
2023-05-22T06:59:41.286Z,21.10
2023-05-22T07:01:46.956Z,21.40
2023-05-22T07:03:49.938Z,21.90
2023-05-22T07:05:53.212Z,22.20
2023-05-22T07:07:56.390Z,22.50
2023-05-22T07:09:59.189Z,22.30
2023-05-22T07:12:02.340Z,22.40
2023-05-22T07:14:05.416Z,22.50
2023-05-22T07:16:08.474Z,22.00
2023-05-22T07:18:12.957Z,22.10
2023-05-22T07:20:17.672Z,22.10
2023-05-22T07:22:20.691Z,22.20
2023-05-22T07:24:23.502Z,22.60
2023-05-22T07:26:27.634Z,22.90
2023-05-22T07:28:31.068Z,23.00
2023-05-22T07:30:33.852Z,23.30
2023-05-22T07:32:36.745Z,22.80
2023-05-22T07:34:40.998Z,22.80
2023-05-22T07:36:43.827Z,22.80
2023-05-22T07:38:46.893Z,22.30
2023-05-22T07:40:49.689Z,22.60
2023-05-22T07:42:52.476Z,22.30
2023-05-22T07:44:55.622Z,22.50
2023-05-22T07:46:59.559Z,22.30
2023-05-22T07:49:02.440Z,22.60
2023-05-22T07:51:07.809Z,22.60
2023-05-22T07:53:10.851Z,23.10
2023-05-22T07:55:13.667Z,23.40
2023-05-22T07:57:16.642Z,23.70
2023-05-22T07:59:21.494Z,24.00
2023-05-22T08:01:24.571Z,24.30
2023-05-22T08:03:27.573Z,24.10
2023-05-22T08:05:30.509Z,24.10
2023-05-22T08:07:34.658Z,24.40
2023-05-22T08:09:37.719Z,24.50
2023-05-22T08:11:42.188Z,24.60
2023-05-22T08:13:45.051Z,24.70
2023-05-22T08:15:47.993Z,24.90
2023-05-22T08:17:50.881Z,25.00
2023-05-22T08:19:53.838Z,25.10
2023-05-22T08:21:58.142Z,25.00
2023-05-22T08:24:02.513Z,25.30
2023-05-22T08:26:06.041Z,25.50
2023-05-22T08:28:08.913Z,26.00
2023-05-22T08:30:12.098Z,26.00
2023-05-22T08:32:14.990Z,25.90
2023-05-22T08:34:17.800Z,25.90
2023-05-22T08:36:23.298Z,25.80
2023-05-22T08:38:26.118Z,26.20
2023-05-22T08:40:35.366Z,26.70
2023-05-22T08:42:38.514Z,26.60
2023-05-22T08:44:41.359Z,26.10
2023-05-22T08:46:45.385Z,25.80
2023-05-22T08:48:48.297Z,26.20
2023-05-22T08:50:57.156Z,26.60
2023-05-22T08:53:02.876Z,26.70
2023-05-22T08:55:06.662Z,26.40
2023-05-22T08:57:10.901Z,26.60
2023-05-22T08:59:13.788Z,26.60
2023-05-22T09:01:16.879Z,27.10
2023-05-22T09:03:21.554Z,26.70
2023-05-22T09:05:26.869Z,26.50
2023-05-22T09:07:29.910Z,26.90
2023-05-22T09:09:33.893Z,27.30
2023-05-22T09:11:36.746Z,27.20
2023-05-22T09:13:41.549Z,27.50
2023-05-22T09:15:44.585Z,27.60
2023-05-22T09:17:47.496Z,27.60
2023-05-22T09:19:50.828Z,27.70
2023-05-22T09:21:55.397Z,27.60
2023-05-22T09:24:01.147Z,27.60
2023-05-22T09:26:04.548Z,27.70
2023-05-22T09:28:07.414Z,28.00
2023-05-22T09:30:12.951Z,27.70
2023-05-22T09:32:16.192Z,28.00
2023-05-22T09:34:19.014Z,28.10
2023-05-22T09:36:22.028Z,27.90
2023-05-22T09:38:25.949Z,27.40
2023-05-22T09:40:29.149Z,27.60
2023-05-22T09:42:31.968Z,28.10
2023-05-22T09:44:34.766Z,28.10
2023-05-22T09:46:42.411Z,28.20
2023-05-22T09:48:45.343Z,27.80
2023-05-22T09:50:48.816Z,27.60
2023-05-22T09:52:51.640Z,27.70
2023-05-22T09:54:56.575Z,27.70
2023-05-22T09:56:59.417Z,27.80
2023-05-22T09:59:02.232Z,28.30
2023-05-22T10:01:05.247Z,28.80
2023-05-22T10:03:12.105Z,28.80
2023-05-22T10:05:21.403Z,29.30
2023-05-22T10:07:25.297Z,28.10
2023-05-22T10:09:31.094Z,28.30
2023-05-22T10:11:34.229Z,28.40
2023-05-22T10:13:37.064Z,28.30
2023-05-22T10:15:39.895Z,28.60
2023-05-22T10:17:42.836Z,28.80
2023-05-22T10:19:47.147Z,29.00
2023-05-22T10:21:50.081Z,29.20
2023-05-22T10:23:52.946Z,29.40
2023-05-22T10:25:56.053Z,29.20
2023-05-22T10:27:58.903Z,29.10
2023-05-22T10:30:19.849Z,29.20
2023-05-22T10:32:26.702Z,29.50
2023-05-22T10:34:31.768Z,29.50
2023-05-22T10:36:43.615Z,29.60
2023-05-22T10:38:55.592Z,29.10
2023-05-22T10:40:58.915Z,30.00
2023-05-22T10:43:02.177Z,30.10
2023-05-22T10:45:05.878Z,30.10
2023-05-22T10:47:11.477Z,29.90
2023-05-22T10:49:21.187Z,29.90
2023-05-22T10:51:24.207Z,30.00
2023-05-22T10:53:29.033Z,29.20
2023-05-22T10:55:31.862Z,28.80
2023-05-22T10:57:35.367Z,29.20
2023-05-22T10:59:38.271Z,29.80
2023-05-22T11:01:41.253Z,29.20
2023-05-22T11:03:56.985Z,29.40
2023-05-22T11:06:01.544Z,29.10
2023-05-22T11:08:47.062Z,28.70
2023-05-22T11:10:54.570Z,29.20
2023-05-22T11:13:12.576Z,29.30
2023-05-22T11:15:15.971Z,29.50
2023-05-22T11:17:19.806Z,30.20
2023-05-22T11:19:24.056Z,30.10
2023-05-22T11:21:27.124Z,29.50
2023-05-22T11:23:29.966Z,29.60
2023-05-22T11:25:34.273Z,29.20
2023-05-22T11:27:39.130Z,29.40
2023-05-22T11:29:44.460Z,30.00
2023-05-22T11:31:47.693Z,30.20
2023-05-22T11:33:50.669Z,29.90
2023-05-22T11:35:54.429Z,30.10
2023-05-22T11:37:57.362Z,30.00
2023-05-22T11:40:05.760Z,30.30
2023-05-22T11:42:08.788Z,30.40
2023-05-22T11:44:14.003Z,29.80
2023-05-22T11:46:16.855Z,30.20
2023-05-22T11:48:21.147Z,29.50
2023-05-22T11:50:40.431Z,30.40
2023-05-22T11:52:45.945Z,31.00
2023-05-22T11:54:49.224Z,30.60
2023-05-22T11:56:52.082Z,30.20
2023-05-22T11:58:54.862Z,30.70
2023-05-22T12:01:02.402Z,30.50
2023-05-22T12:03:05.431Z,30.60
2023-05-22T12:05:11.865Z,30.50
2023-05-22T12:07:34.620Z,30.30
2023-05-22T12:09:57.466Z,29.50
2023-05-22T12:12:00.288Z,28.70
2023-05-22T12:14:03.749Z,28.10
2023-05-22T12:16:19.199Z,27.60
2023-05-22T12:18:22.037Z,27.20
2023-05-22T12:20:25.363Z,27.00
2023-05-22T12:22:29.760Z,26.80
2023-05-22T12:24:39.161Z,26.50
2023-05-22T12:26:41.965Z,26.50
2023-05-22T12:28:44.862Z,26.30
2023-05-22T12:30:47.701Z,26.30
2023-05-22T12:32:53.164Z,26.10
2023-05-22T12:34:59.126Z,26.20
2023-05-22T12:37:02.192Z,26.10
2023-05-22T12:39:09.187Z,26.10
2023-05-22T12:41:11.999Z,26.10
2023-05-22T12:43:14.854Z,26.10
2023-05-22T12:45:18.645Z,26.00
2023-05-22T12:47:21.587Z,25.80
2023-05-22T12:49:25.766Z,25.90
2023-05-22T12:51:30.174Z,26.00
2023-05-22T12:53:33.042Z,26.10
2023-05-22T12:55:35.888Z,26.20
2023-05-22T12:57:38.703Z,26.20
2023-05-22T12:59:42.051Z,26.30
2023-05-22T13:01:45.098Z,26.40
2023-05-22T13:03:47.935Z,26.40
2023-05-22T13:05:52.193Z,26.50
2023-05-22T13:07:55.243Z,26.20
2023-05-22T13:09:58.164Z,26.50
2023-05-22T13:12:01.151Z,26.40
2023-05-22T13:14:04.015Z,26.70
2023-05-22T13:16:07.043Z,26.50
2023-05-22T13:18:09.988Z,27.00
2023-05-22T13:20:12.958Z,27.20
2023-05-22T13:22:17.136Z,27.00
2023-05-22T13:24:19.947Z,27.40
2023-05-22T13:26:22.842Z,27.70
2023-05-22T13:28:25.665Z,28.40
2023-05-22T13:30:28.486Z,29.10
2023-05-22T13:32:31.341Z,29.70
2023-05-22T13:34:34.225Z,29.10
2023-05-22T13:36:37.270Z,29.30
2023-05-22T13:38:41.426Z,29.20
2023-05-22T13:40:46.201Z,29.80
2023-05-22T13:42:51.812Z,29.70
2023-05-22T13:44:54.655Z,29.20
2023-05-22T13:46:57.501Z,28.80
2023-05-22T13:49:00.561Z,29.40
2023-05-22T13:51:03.765Z,30.00
2023-05-22T13:53:06.594Z,30.30
2023-05-22T13:55:11.091Z,30.70
2023-05-22T13:57:13.899Z,30.70
2023-05-22T13:59:16.732Z,30.70
2023-05-22T14:01:19.578Z,30.00
2023-05-22T14:03:22.547Z,29.80
2023-05-22T14:05:25.512Z,29.20
2023-05-22T14:07:31.461Z,30.00
2023-05-22T14:09:34.268Z,30.20
2023-05-22T14:11:38.434Z,29.60
2023-05-22T14:13:41.414Z,29.90
2023-05-22T14:15:46.803Z,29.80
2023-05-22T14:17:49.648Z,29.10
2023-05-22T14:19:52.475Z,28.60
2023-05-22T14:21:55.316Z,28.80
2023-05-22T14:23:58.179Z,28.70
2023-05-22T14:26:01.002Z,28.80
2023-05-22T14:28:05.160Z,28.40
2023-05-22T14:30:13.408Z,28.20
2023-05-22T14:32:16.232Z,28.00
2023-05-22T14:34:19.069Z,27.60
2023-05-22T14:36:21.926Z,27.40
2023-05-22T14:38:24.740Z,27.00
2023-05-22T14:40:27.565Z,26.90
2023-05-22T14:42:30.403Z,26.80
2023-05-22T14:44:34.595Z,26.70
2023-05-22T14:46:37.520Z,26.50
2023-05-22T14:48:40.686Z,26.30
2023-05-22T14:50:43.542Z,26.20
2023-05-22T14:52:46.409Z,26.00
2023-05-22T14:54:49.299Z,25.90
2023-05-22T14:56:52.172Z,25.80
2023-05-22T14:58:55.085Z,25.80
2023-05-22T15:00:59.285Z,25.70
2023-05-22T15:03:02.791Z,25.70
2023-05-22T15:05:07.167Z,25.70
2023-05-22T15:07:10.297Z,25.50
2023-05-22T15:09:13.132Z,25.50
2023-05-22T15:11:16.007Z,25.40
2023-05-22T15:13:18.850Z,25.30
2023-05-22T15:15:21.806Z,25.20
2023-05-22T15:17:26.031Z,25.10
2023-05-22T15:19:28.895Z,25.00
2023-05-22T15:21:31.856Z,25.00
2023-05-22T15:23:34.689Z,25.00
2023-05-22T15:25:37.769Z,24.90
2023-05-22T15:27:41.034Z,24.90
2023-05-22T15:29:43.879Z,24.90
2023-05-22T15:31:47.223Z,24.70
2023-05-22T15:33:51.826Z,24.60
2023-05-22T15:35:54.924Z,24.50
2023-05-22T15:37:57.789Z,24.40
2023-05-22T15:40:01.542Z,24.10
2023-05-22T15:42:07.038Z,23.70
2023-05-22T15:44:11.035Z,23.40
2023-05-22T15:46:16.528Z,23.10
2023-05-22T15:48:19.387Z,23.10
2023-05-22T15:50:23.556Z,22.90
2023-05-22T15:52:26.366Z,22.60
2023-05-22T15:54:29.206Z,22.40
2023-05-22T15:56:32.294Z,22.20
2023-05-22T15:58:35.152Z,22.00
2023-05-22T16:00:41.228Z,21.80
2023-05-22T16:02:44.364Z,21.50
2023-05-22T16:04:47.271Z,21.50
2023-05-22T16:06:51.763Z,21.40
2023-05-22T16:08:54.590Z,21.30
2023-05-22T16:11:00.668Z,21.20
2023-05-22T16:13:05.154Z,21.10
2023-05-22T16:15:09.141Z,21.20
2023-05-22T16:17:11.962Z,21.30
2023-05-22T16:19:15.136Z,21.30
2023-05-22T16:21:18.242Z,21.20
2023-05-22T16:23:22.419Z,21.20
2023-05-22T16:25:25.220Z,21.20
2023-05-22T16:27:28.084Z,21.30
2023-05-22T16:29:32.387Z,21.40
2023-05-22T16:31:36.142Z,21.50
2023-05-22T16:33:39.018Z,21.50
2023-05-22T16:35:46.767Z,21.70
2023-05-22T16:37:49.652Z,21.70
2023-05-22T16:39:53.821Z,21.70
2023-05-22T16:41:56.632Z,21.80
2023-05-22T16:43:59.458Z,21.80
2023-05-22T16:46:02.364Z,21.80
2023-05-22T16:48:05.357Z,21.70
2023-05-22T16:50:09.504Z,21.70
2023-05-22T16:52:12.312Z,21.80
2023-05-22T16:54:15.142Z,21.80
2023-05-22T16:56:20.780Z,21.70
2023-05-22T16:58:23.618Z,21.80
2023-05-22T17:00:26.574Z,21.60
2023-05-22T17:02:29.655Z,21.60
2023-05-22T17:04:32.545Z,21.50
2023-05-22T17:06:35.616Z,21.30
2023-05-22T17:08:38.440Z,21.30
2023-05-22T17:10:42.098Z,21.40
2023-05-22T17:12:46.741Z,21.30
2023-05-22T17:14:49.588Z,21.40
2023-05-22T17:16:52.541Z,21.50
2023-05-22T17:18:55.511Z,21.50
2023-05-22T17:21:00.263Z,21.50
2023-05-22T17:23:03.097Z,21.50
2023-05-22T17:25:08.018Z,21.50
2023-05-22T17:27:11.464Z,21.50
2023-05-22T17:29:15.891Z,21.40
2023-05-22T17:31:18.740Z,21.20
2023-05-22T17:33:21.613Z,21.10
2023-05-22T17:35:24.495Z,21.00
2023-05-22T17:37:27.577Z,20.90
2023-05-22T17:39:30.666Z,20.90
2023-05-22T17:41:33.550Z,20.90
2023-05-22T17:43:38.116Z,20.80
2023-05-22T17:45:44.423Z,20.60
2023-05-22T17:47:47.899Z,20.50
2023-05-22T17:49:50.758Z,20.50
2023-05-22T17:51:53.700Z,20.60
2023-05-22T17:53:58.910Z,20.60
2023-05-22T17:56:01.957Z,20.50
2023-05-22T17:58:04.765Z,20.50
2023-05-22T18:00:10.145Z,20.60
2023-05-22T18:02:14.324Z,20.60
2023-05-22T18:04:17.185Z,20.70
2023-05-22T18:06:21.795Z,20.80
2023-05-22T18:08:26.776Z,20.80
2023-05-22T18:10:29.594Z,20.80
2023-05-22T18:12:32.540Z,20.70
2023-05-22T18:14:35.397Z,20.70
2023-05-22T18:16:38.269Z,20.70
2023-05-22T18:18:42.581Z,20.60
2023-05-22T18:20:46.082Z,20.50
2023-05-22T18:22:48.954Z,20.50
2023-05-22T18:24:51.774Z,20.40
2023-05-22T18:26:55.577Z,20.40
2023-05-22T18:28:58.395Z,20.40
2023-05-22T18:31:01.570Z,20.40
2023-05-22T18:33:04.758Z,20.30
2023-05-22T18:35:09.931Z,20.30
2023-05-22T18:37:14.008Z,20.30
2023-05-22T18:39:16.815Z,20.20
2023-05-22T18:41:19.638Z,20.10
2023-05-22T18:43:27.643Z,20.00
2023-05-22T18:45:30.451Z,20.00
2023-05-22T18:47:33.390Z,19.90
2023-05-22T18:49:36.210Z,19.90
2023-05-22T18:51:40.697Z,19.80
2023-05-22T18:53:43.480Z,19.80
2023-05-22T18:55:48.580Z,19.80
2023-05-22T18:57:51.485Z,19.70
2023-05-22T18:59:54.494Z,19.70
2023-05-22T19:01:57.325Z,19.70
2023-05-22T19:04:00.132Z,19.70
2023-05-22T19:06:03.713Z,19.70
2023-05-22T19:08:07.874Z,19.70
2023-05-22T19:10:11.217Z,19.70
2023-05-22T19:12:14.099Z,19.60
2023-05-22T19:14:16.950Z,19.60
2023-05-22T19:16:19.804Z,19.60
2023-05-22T19:18:22.680Z,19.60
2023-05-22T19:20:25.528Z,19.60
2023-05-22T19:22:28.337Z,19.60
2023-05-22T19:24:32.829Z,19.60
2023-05-22T19:26:35.675Z,19.60
2023-05-22T19:28:38.512Z,19.50
2023-05-22T19:30:41.676Z,19.50
2023-05-22T19:32:44.779Z,19.50
2023-05-22T19:34:47.606Z,19.60
2023-05-22T19:36:51.668Z,19.50
2023-05-22T19:38:54.526Z,19.40
2023-05-22T19:40:58.659Z,19.40
2023-05-22T19:43:01.987Z,19.40
2023-05-22T19:45:05.692Z,19.30
2023-05-22T19:47:08.840Z,19.30
2023-05-22T19:49:11.699Z,19.30
2023-05-22T19:51:14.534Z,19.30
2023-05-22T19:53:17.426Z,19.20
2023-05-22T19:55:20.256Z,19.20
2023-05-22T19:57:24.472Z,19.20
2023-05-22T19:59:27.533Z,19.20
2023-05-22T20:01:30.490Z,19.20
2023-05-22T20:03:33.637Z,19.10
2023-05-22T20:05:36.687Z,19.10
2023-05-22T20:07:39.573Z,19.20
2023-05-22T20:09:42.383Z,19.10
2023-05-22T20:11:45.212Z,19.20
2023-05-22T20:13:49.367Z,19.10
2023-05-22T20:15:53.415Z,19.10
2023-05-22T20:17:56.363Z,19.10
2023-05-22T20:19:59.573Z,19.10
2023-05-22T20:22:04.989Z,19.00
2023-05-22T20:24:12.061Z,19.00
2023-05-22T20:26:14.931Z,19.00
2023-05-22T20:28:17.825Z,19.00
2023-05-22T20:30:22.425Z,18.90
2023-05-22T20:32:25.641Z,18.90
2023-05-22T20:34:28.837Z,18.90
2023-05-22T20:36:32.420Z,18.90
2023-05-22T20:38:35.505Z,18.90
2023-05-22T20:40:38.306Z,18.90
2023-05-22T20:42:42.646Z,18.90
2023-05-22T20:44:46.210Z,19.00
2023-05-22T20:46:50.403Z,18.90
2023-05-22T20:48:53.230Z,18.90
2023-05-22T20:50:56.022Z,18.80
2023-05-22T20:53:00.178Z,18.80
2023-05-22T20:55:03.005Z,18.70
2023-05-22T20:57:06.249Z,18.70
2023-05-22T20:59:09.033Z,18.70
2023-05-22T21:01:11.936Z,18.70
2023-05-22T21:03:16.225Z,18.70
2023-05-22T21:05:19.085Z,18.70
2023-05-22T21:07:21.952Z,18.70
2023-05-22T21:09:24.757Z,18.70
2023-05-22T21:11:27.709Z,18.70
2023-05-22T21:13:30.518Z,18.60
2023-05-22T21:15:33.351Z,18.60
2023-05-22T21:17:36.222Z,18.50
2023-05-22T21:19:40.394Z,18.40
2023-05-22T21:21:43.302Z,18.40
2023-05-22T21:23:46.108Z,18.30
2023-05-22T21:25:49.049Z,18.10
2023-05-22T21:27:53.819Z,18.00
2023-05-22T21:29:56.659Z,18.00
2023-05-22T21:31:59.513Z,18.00
2023-05-22T21:34:02.478Z,18.00
2023-05-22T21:36:07.128Z,18.00
2023-05-22T21:38:09.963Z,17.90
2023-05-22T21:40:13.676Z,17.80
2023-05-22T21:42:16.504Z,17.70
2023-05-22T21:44:19.334Z,17.80
2023-05-22T21:46:23.195Z,17.80
2023-05-22T21:48:26.056Z,17.90
2023-05-22T21:50:28.868Z,17.90
2023-05-22T21:52:33.110Z,17.80
2023-05-22T21:54:36.190Z,17.90
2023-05-22T21:56:39.529Z,17.90
2023-05-22T21:58:42.553Z,18.00
2023-05-22T22:00:45.328Z,18.00
2023-05-22T22:02:48.244Z,18.10
2023-05-22T22:04:51.112Z,18.00
2023-05-22T22:06:53.948Z,18.00
2023-05-22T22:08:59.766Z,18.00
2023-05-22T22:11:02.616Z,17.90
2023-05-22T22:13:05.745Z,17.90
2023-05-22T22:15:09.632Z,17.70
2023-05-22T22:17:12.455Z,17.60
2023-05-22T22:19:15.673Z,17.60
2023-05-22T22:21:28.071Z,17.60
2023-05-22T22:23:30.889Z,17.70
2023-05-22T22:25:35.067Z,17.70
2023-05-22T22:27:37.904Z,17.70
2023-05-22T22:29:42.864Z,17.70
2023-05-22T22:31:45.706Z,17.70
2023-05-22T22:33:48.564Z,17.60
2023-05-22T22:35:51.400Z,17.50
2023-05-22T22:37:54.214Z,17.40
2023-05-22T22:39:57.021Z,17.20
2023-05-22T22:42:04.129Z,17.10
2023-05-22T22:44:06.997Z,17.00
2023-05-22T22:46:09.897Z,17.10
2023-05-22T22:48:12.776Z,17.10
2023-05-22T22:50:16.061Z,17.10
2023-05-22T22:52:19.009Z,17.00
2023-05-22T22:54:21.911Z,17.00
2023-05-22T22:56:29.137Z,16.90
2023-05-22T22:58:33.480Z,16.90
2023-05-22T23:00:36.552Z,16.90
2023-05-22T23:02:39.392Z,16.80
2023-05-22T23:04:42.329Z,16.80
2023-05-22T23:06:46.118Z,16.70
2023-05-22T23:08:48.966Z,16.70
2023-05-22T23:10:51.769Z,16.70
2023-05-22T23:12:54.596Z,16.70
2023-05-22T23:14:58.852Z,16.80
2023-05-22T23:17:01.704Z,16.80
2023-05-22T23:19:04.839Z,16.90
2023-05-22T23:21:07.714Z,16.90
2023-05-22T23:23:10.532Z,16.90
2023-05-22T23:25:13.374Z,17.00
2023-05-22T23:27:16.324Z,17.00
2023-05-22T23:29:19.145Z,17.10
2023-05-22T23:31:26.028Z,17.10
2023-05-22T23:33:29.338Z,17.00
2023-05-22T23:35:32.153Z,17.00
2023-05-22T23:37:33.989Z,16.90
2023-05-22T23:39:36.842Z,16.90
2023-05-22T23:41:39.707Z,16.80
2023-05-22T23:43:42.546Z,16.80
2023-05-22T23:45:45.402Z,16.80
2023-05-22T23:47:49.688Z,16.90
2023-05-22T23:49:55.173Z,16.90
2023-05-22T23:51:58.000Z,17.00
2023-05-22T23:54:01.118Z,17.00
2023-05-22T23:56:04.251Z,17.00
2023-05-22T23:58:07.076Z,17.10
